»·PEaware :: N792VA KCRQ-KHND

N792VA :: KCRQ-KHND

FLIGHT INFORMATION

Flight Status: Arrived
Operator: Privately registered:
United States
More flights under this callsign
Pilot: Scott M. (16181)
Aircraft: Unknown
(P28U)
More flights by this aircraft type
Origin: KCRQ McClellan-Palomar
United States
Destination: KHND Henderson
United States
More flights between these airports :: More routes between these airports
Route: +
File this flight plan on PilotEdge
Remarks:
Altitude:
(Current/Filed)
9,500ft
Speed:
(Current/Filed)
160kts
Departed: 25-Jun-18 04:58 PM
Arrived: 25-Jun-18 06:31 PM
Distance/Time
Traveled:
201nm/1:33
Distance/Time
To Go:
Arrived

Flight Plot

Page will automatically refresh every two minutes.

Flight plan parsing failed; only flown route is shown


Map Options




Map Legend


Flown Route
Filed Route
Departure Airport
Arrival Airport
Navaid (VOR, NDB)
Fix

Horizontal Profiles

Position Reports

Time Latitude Longitude Heading Altitude Ground
Speed
25-Jun-18 16:46 33.126765 -117.280778 78 310ft 0kts
25-Jun-18 16:47 33.126765 -117.280778 78 310ft 0kts
25-Jun-18 16:48 33.126765 -117.280778 78 310ft 0kts
25-Jun-18 16:49 33.126765 -117.280778 78 310ft 0kts
25-Jun-18 16:50 33.126765 -117.280778 78 310ft 0kts
25-Jun-18 16:51 33.126765 -117.280778 78 310ft 0kts
25-Jun-18 16:52 33.126977 -117.280590 34 309ft 5kts
25-Jun-18 16:53 33.127792 -117.277776 80 308ft 11kts
25-Jun-18 16:54 33.128474 -117.273612 80 303ft 15kts
25-Jun-18 16:55 33.128618 -117.272998 57 301ft 0kts
25-Jun-18 16:56 33.128618 -117.272998 57 301ft 0kts
25-Jun-18 16:57 33.129395 -117.273032 261 305ft 10kts
25-Jun-18 16:58 33.126243 -117.297707 287 921ft 102kts
25-Jun-18 16:59 33.147243 -117.287888 58 2208ft 103kts
25-Jun-18 17:00 33.159445 -117.255584 59 3420ft 114kts
25-Jun-18 17:01 33.174729 -117.221906 58 4583ft 121kts
25-Jun-18 17:02 33.189733 -117.185491 61 5680ft 126kts
25-Jun-18 17:03 33.206032 -117.148501 54 6740ft 127kts
25-Jun-18 17:04 33.226164 -117.113240 51 7754ft 129kts
25-Jun-18 17:05 33.246790 -117.077841 52 8716ft 132kts
25-Jun-18 17:06 33.268239 -117.041085 53 9472ft 142kts
25-Jun-18 17:07 33.293118 -116.998370 53 9498ft 165kts
25-Jun-18 17:08 33.319540 -116.952967 53 9497ft 167kts
25-Jun-18 17:09 33.346045 -116.907433 53 9497ft 167kts
25-Jun-18 17:10 33.372649 -116.861680 53 9488ft 167kts
25-Jun-18 17:11 33.398639 -116.816934 53 9488ft 162kts
25-Jun-18 17:12 33.424183 -116.772653 54 9488ft 162kts
25-Jun-18 17:13 33.449984 -116.728504 53 9489ft 162kts
25-Jun-18 17:14 33.476434 -116.682916 53 9325ft 168kts
25-Jun-18 17:15 33.502528 -116.637754 53 9347ft 163kts
25-Jun-18 17:16 33.527632 -116.594300 53 9508ft 161kts
25-Jun-18 17:17 33.549060 -116.557112 53 9507ft 163kts
25-Jun-18 17:18 33.574821 -116.512362 52 9507ft 163kts
25-Jun-18 17:19 33.604979 -116.459915 52 9508ft 163kts
25-Jun-18 17:20 33.630896 -116.414791 53 9462ft 164kts
25-Jun-18 17:21 33.656635 -116.369893 53 9489ft 162kts
25-Jun-18 17:22 33.681905 -116.325800 54 9461ft 164kts
25-Jun-18 17:23 33.707643 -116.280799 54 9460ft 163kts
25-Jun-18 17:24 33.729082 -116.243294 54 9462ft 163kts
25-Jun-18 17:25 33.754376 -116.198999 55 9460ft 160kts
25-Jun-18 17:26 33.779539 -116.154904 57 9461ft 160kts
25-Jun-18 17:27 33.804561 -116.110905 57 9461ft 158kts
25-Jun-18 17:28 33.829350 -116.067300 57 9461ft 157kts
25-Jun-18 17:29 33.854010 -116.023880 57 9430ft 159kts
25-Jun-18 17:30 33.879151 -115.979558 57 9333ft 158kts
25-Jun-18 17:31 33.903897 -115.935899 57 9333ft 157kts
25-Jun-18 17:32 33.928535 -115.892370 57 9333ft 157kts
25-Jun-18 17:33 33.953162 -115.848810 57 9338ft 157kts
25-Jun-18 17:34 33.977029 -115.806564 57 9516ft 152kts
25-Jun-18 17:35 34.001193 -115.763702 57 9516ft 155kts
25-Jun-18 17:36 34.025765 -115.720565 56 9516ft 157kts
25-Jun-18 17:37 34.050579 -115.676650 55 9516ft 159kts
25-Jun-18 17:38 34.075455 -115.632411 55 9516ft 159kts
25-Jun-18 17:39 34.100227 -115.588281 54 9516ft 159kts
25-Jun-18 17:40 34.134164 -115.557649 22 9516ft 155kts
25-Jun-18 17:41 34.173857 -115.537150 22 8988ft 157kts
25-Jun-18 17:42 34.213738 -115.516737 22 8286ft 152kts
25-Jun-18 17:43 34.251935 -115.497227 22 7660ft 148kts
25-Jun-18 17:44 34.288143 -115.478807 23 7514ft 138kts
25-Jun-18 17:45 34.325129 -115.459827 23 7512ft 147kts
25-Jun-18 17:46 34.363100 -115.440341 24 7511ft 149kts
25-Jun-18 17:47 34.401489 -115.420634 24 7511ft 150kts
25-Jun-18 17:48 34.440187 -115.400752 24 7511ft 151kts
25-Jun-18 17:49 34.479119 -115.380734 24 7511ft 152kts
25-Jun-18 17:50 34.517678 -115.360873 24 7622ft 146kts
25-Jun-18 17:51 34.555600 -115.341362 25 7584ft 155kts
25-Jun-18 17:52 34.595292 -115.320834 25 6901ft 154kts
25-Jun-18 17:53 34.634854 -115.300397 24 6112ft 155kts
25-Jun-18 17:54 34.674380 -115.280046 24 5639ft 153kts
25-Jun-18 17:55 34.713077 -115.260055 24 5532ft 150kts
25-Jun-18 17:56 34.751757 -115.240060 25 5532ft 151kts
25-Jun-18 17:57 34.790264 -115.220033 24 5532ft 151kts
25-Jun-18 17:58 34.828959 -115.199967 24 5532ft 151kts
25-Jun-18 17:59 34.867544 -115.179928 24 5532ft 151kts
25-Jun-18 18:00 34.906096 -115.159887 24 5532ft 151kts
25-Jun-18 18:01 34.943452 -115.140444 24 5532ft 151kts
25-Jun-18 18:02 34.982032 -115.120354 24 5542ft 151kts
25-Jun-18 18:03 35.020623 -115.100221 24 5542ft 151kts
25-Jun-18 18:04 35.059421 -115.079985 25 5524ft 153kts
25-Jun-18 18:05 35.098368 -115.059639 26 5514ft 151kts
25-Jun-18 18:06 35.136717 -115.039553 26 5512ft 150kts
25-Jun-18 18:07 35.175299 -115.019364 26 5512ft 151kts
25-Jun-18 18:08 35.214023 -114.999045 26 5513ft 152kts
25-Jun-18 18:09 35.252822 -114.978682 26 5513ft 151kts
25-Jun-18 18:10 35.291368 -114.958426 26 5512ft 151kts
25-Jun-18 18:11 35.330371 -114.937904 26 5513ft 153kts
25-Jun-18 18:12 35.369881 -114.917103 25 5513ft 155kts
25-Jun-18 18:13 35.409575 -114.896182 24 5513ft 156kts
25-Jun-18 18:14 35.450481 -114.884980 339 5514ft 155kts
25-Jun-18 18:15 35.491034 -114.903469 336 5513ft 155kts
25-Jun-18 18:16 35.531320 -114.922664 335 5513ft 155kts
25-Jun-18 18:17 35.571443 -114.941898 336 5590ft 152kts
25-Jun-18 18:18 35.612199 -114.961310 336 5486ft 157kts
25-Jun-18 18:19 35.652198 -114.980386 336 5486ft 153kts
25-Jun-18 18:20 35.691870 -114.999326 336 5486ft 153kts
25-Jun-18 18:21 35.731472 -115.018248 336 5486ft 153kts
25-Jun-18 18:22 35.771324 -115.037307 336 5487ft 154kts
25-Jun-18 18:23 35.811382 -115.056481 336 5503ft 153kts
25-Jun-18 18:24 35.847936 -115.073989 336 5485ft 133kts
25-Jun-18 18:25 35.882704 -115.090700 336 5160ft 138kts
25-Jun-18 18:26 35.916592 -115.105972 340 4405ft 114kts
25-Jun-18 18:27 35.944391 -115.117413 339 3603ft 97kts
25-Jun-18 18:28 35.969281 -115.122847 355 3411ft 91kts
25-Jun-18 18:29 35.994497 -115.127004 316 3112ft 93kts
25-Jun-18 18:30 35.981264 -115.135318 177 2421ft 73kts
25-Jun-18 18:31 35.974433 -115.136130 267 2424ft 0kts
25-Jun-18 18:32 35.975628 -115.137561 297 2417ft 2kts

Navigation Log

Ident Type
Flight plan parsing failed, navigation log unavailable